Weather at Vellinge Airfield

Public forecast

Using degrees Celsius for public forecast. Weather courtesy of forecast.io.

Closest aviation weather report (METAR) to Vellinge Airfield

Closest report is Malmö Sturup Airport, 14.7 nm (27.2 km) NE.

2024/05/20 04:50 (retrieved 17 minutes ago)

ESMS 200450Z 06002KT CAVOK 15/10 Q1012

Closest aviation forecast (TAF) to Vellinge Airfield

Forecast is more than 6 hours old.

Closest forecast is Sandefjord Airport, Torp, 244.8 nm (453.4 km) NNW.

2024/05/19 18:39 (retrieved 10 hours ago)

TAF ENTO 191700Z 1918/2018 21008KT CAVOK BECMG 1921/1923 03010KT